createdAt,value
2022-12-22T00:00:35.061Z,5.10
2022-12-22T00:01:35.092Z,5.07
2022-12-22T00:02:35.253Z,5.10
2022-12-22T00:03:35.134Z,5.08
2022-12-22T00:04:35.005Z,5.05
2022-12-22T00:05:35.000Z,5.05
2022-12-22T00:06:34.972Z,5.07
2022-12-22T00:07:34.986Z,5.17
2022-12-22T00:08:34.942Z,5.17
2022-12-22T00:09:34.945Z,5.21
2022-12-22T00:10:34.925Z,5.21
2022-12-22T00:11:34.924Z,5.20
2022-12-22T00:12:34.910Z,5.21
2022-12-22T00:13:34.901Z,5.20
2022-12-22T00:14:34.922Z,5.20
2022-12-22T00:15:34.855Z,5.21
2022-12-22T00:16:34.929Z,5.28
2022-12-22T00:17:34.841Z,5.43
2022-12-22T00:18:34.831Z,5.51
2022-12-22T00:19:34.811Z,5.54
2022-12-22T00:20:34.809Z,5.56
2022-12-22T00:21:34.783Z,5.50
2022-12-22T00:22:34.777Z,5.46
2022-12-22T00:23:34.789Z,5.48
2022-12-22T00:24:34.758Z,5.51
2022-12-22T00:25:34.738Z,5.59
2022-12-22T00:26:34.718Z,5.64
2022-12-22T00:27:34.705Z,5.68
2022-12-22T00:28:34.699Z,5.79
2022-12-22T00:29:34.691Z,5.80
2022-12-22T00:30:34.747Z,5.86
2022-12-22T00:31:34.666Z,5.91
2022-12-22T00:32:34.651Z,5.91
2022-12-22T00:33:34.635Z,6.01
2022-12-22T00:34:34.626Z,6.02
2022-12-22T00:35:34.614Z,6.11
2022-12-22T00:36:34.601Z,6.20
2022-12-22T00:37:34.587Z,6.20
2022-12-22T00:38:34.587Z,6.20
2022-12-22T00:39:34.604Z,6.26
2022-12-22T00:40:34.600Z,6.22
2022-12-22T00:41:34.537Z,6.20
2022-12-22T00:42:34.516Z,6.24
2022-12-22T00:43:34.525Z,6.22
2022-12-22T00:44:34.689Z,6.20
2022-12-22T00:45:34.546Z,6.22
2022-12-22T00:46:34.495Z,6.16
2022-12-22T00:47:34.469Z,6.16
2022-12-22T00:48:34.465Z,6.16
2022-12-22T00:49:34.437Z,6.19
2022-12-22T00:50:34.446Z,6.19
2022-12-22T00:51:34.409Z,6.19
2022-12-22T00:52:34.418Z,6.16
2022-12-22T00:53:34.404Z,6.20
2022-12-22T00:54:34.392Z,6.22
2022-12-22T00:55:34.394Z,6.22
2022-12-22T00:56:34.361Z,6.24
2022-12-22T00:57:34.328Z,6.26
2022-12-22T00:58:34.320Z,6.26
2022-12-22T00:59:34.310Z,6.31
2022-12-22T01:00:34.299Z,6.27
2022-12-22T01:01:34.390Z,6.28
2022-12-22T01:02:34.403Z,6.28
2022-12-22T01:03:34.486Z,6.28
2022-12-22T01:04:34.244Z,6.28
2022-12-22T01:05:34.234Z,6.24
2022-12-22T01:06:34.220Z,6.27
2022-12-22T01:07:34.207Z,6.31
2022-12-22T01:08:34.397Z,6.33
2022-12-22T01:09:34.174Z,6.31
2022-12-22T01:10:34.174Z,6.39
2022-12-22T01:11:34.180Z,6.38
2022-12-22T01:12:34.137Z,6.39
2022-12-22T01:13:34.126Z,6.44
2022-12-22T01:14:34.126Z,6.46
2022-12-22T01:15:34.162Z,6.51
2022-12-22T01:16:34.191Z,6.48
2022-12-22T01:17:34.077Z,6.48
2022-12-22T01:18:34.061Z,6.44
2022-12-22T01:19:34.045Z,6.45
2022-12-22T01:20:34.039Z,6.48
2022-12-22T01:21:34.027Z,6.48
2022-12-22T01:22:34.007Z,6.48
2022-12-22T01:23:33.995Z,6.51
2022-12-22T01:24:33.983Z,6.56
2022-12-22T01:25:33.974Z,6.57
2022-12-22T01:26:33.965Z,6.59
2022-12-22T01:27:33.983Z,6.63
2022-12-22T01:28:33.934Z,6.60
2022-12-22T01:29:33.934Z,6.57
2022-12-22T01:30:33.986Z,6.59
2022-12-22T01:31:33.892Z,6.60
2022-12-22T01:32:33.891Z,6.57
2022-12-22T01:33:33.887Z,6.59
2022-12-22T01:34:33.855Z,6.59
2022-12-22T01:35:33.844Z,6.56
2022-12-22T01:36:33.833Z,6.59
2022-12-22T01:37:33.824Z,6.63
2022-12-22T01:38:33.812Z,6.60
2022-12-22T01:39:33.806Z,6.63
2022-12-22T01:40:33.781Z,6.60
2022-12-22T01:41:33.786Z,6.59
2022-12-22T01:42:33.766Z,6.69
2022-12-22T01:43:33.778Z,6.75
2022-12-22T01:44:33.740Z,6.78
2022-12-22T01:45:33.718Z,6.79
2022-12-22T01:46:33.839Z,6.79
2022-12-22T01:47:33.698Z,6.79
2022-12-22T01:48:33.676Z,6.82
2022-12-22T01:49:33.669Z,6.81
2022-12-22T01:50:33.651Z,6.82
2022-12-22T01:51:33.648Z,6.87
2022-12-22T01:52:33.633Z,6.84
2022-12-22T01:53:33.628Z,6.85
2022-12-22T01:54:33.608Z,6.87
2022-12-22T01:55:33.624Z,6.84
2022-12-22T01:56:33.581Z,6.87
2022-12-22T01:57:33.579Z,6.89
2022-12-22T01:58:33.752Z,6.89
2022-12-22T01:59:33.673Z,6.93
2022-12-22T02:00:33.727Z,6.95
2022-12-22T02:01:33.737Z,6.89
2022-12-22T02:02:33.741Z,6.89
2022-12-22T02:03:33.532Z,6.89
2022-12-22T02:04:33.496Z,6.95
2022-12-22T02:05:33.458Z,6.89
2022-12-22T02:06:33.485Z,6.89
2022-12-22T02:07:33.441Z,6.87
2022-12-22T02:08:33.440Z,6.93
2022-12-22T02:09:33.413Z,6.97
2022-12-22T02:10:33.408Z,6.96
2022-12-22T02:11:33.399Z,7.00
2022-12-22T02:12:33.382Z,7.02
2022-12-22T02:13:33.359Z,7.06
2022-12-22T02:14:33.376Z,7.05
2022-12-22T02:15:33.368Z,7.06
2022-12-22T02:16:33.429Z,7.07
2022-12-22T02:17:33.321Z,7.06
2022-12-22T02:18:33.297Z,7.10
2022-12-22T02:19:33.283Z,7.13
2022-12-22T02:20:33.307Z,7.18
2022-12-22T02:21:33.280Z,7.17
2022-12-22T02:22:33.270Z,7.17
2022-12-22T02:23:33.245Z,7.11
2022-12-22T02:24:33.224Z,7.14
2022-12-22T02:25:33.206Z,7.13
2022-12-22T02:26:33.209Z,7.10
2022-12-22T02:27:33.224Z,7.07
2022-12-22T02:28:33.190Z,7.07
2022-12-22T02:29:33.169Z,7.06
2022-12-22T02:30:33.155Z,7.10
2022-12-22T02:31:33.273Z,7.07
2022-12-22T02:32:33.114Z,7.05
2022-12-22T02:33:33.113Z,7.06
2022-12-22T02:34:33.100Z,7.03
2022-12-22T02:35:33.072Z,7.03
2022-12-22T02:36:33.066Z,7.05
2022-12-22T02:37:33.251Z,7.06
2022-12-22T02:38:33.034Z,7.06
2022-12-22T02:39:33.028Z,7.05
2022-12-22T02:40:39.010Z,7.03
2022-12-22T02:41:34.242Z,7.00
2022-12-22T02:42:32.997Z,7.00
2022-12-22T02:43:32.976Z,6.99
2022-12-22T02:44:32.972Z,7.03
2022-12-22T02:45:32.961Z,7.00
2022-12-22T02:46:32.985Z,7.03
2022-12-22T02:47:32.997Z,6.99
2022-12-22T02:48:32.915Z,6.96
2022-12-22T02:49:32.893Z,6.96
2022-12-22T02:50:32.897Z,6.99
2022-12-22T02:51:32.891Z,7.02
2022-12-22T02:52:32.853Z,7.05
2022-12-22T02:53:32.850Z,7.06
2022-12-22T02:54:32.827Z,7.06
2022-12-22T02:55:32.811Z,7.05
2022-12-22T02:56:32.807Z,7.13
2022-12-22T02:57:32.801Z,7.13
2022-12-22T02:58:32.787Z,7.14
2022-12-22T02:59:32.775Z,7.14
2022-12-22T03:00:32.752Z,7.14
2022-12-22T03:01:32.799Z,7.14
2022-12-22T03:02:33.065Z,7.15
2022-12-22T03:03:33.012Z,7.15
2022-12-22T03:04:32.695Z,7.17
2022-12-22T03:05:32.694Z,7.18
2022-12-22T03:06:32.878Z,7.17
2022-12-22T03:07:32.661Z,7.15
2022-12-22T03:08:32.648Z,7.11
2022-12-22T03:09:32.643Z,7.13
2022-12-22T03:10:32.631Z,7.14
2022-12-22T03:11:32.609Z,7.14
2022-12-22T03:12:32.595Z,7.13
2022-12-22T03:13:32.786Z,7.10
2022-12-22T03:14:32.558Z,7.10
2022-12-22T03:15:32.554Z,7.05
2022-12-22T03:16:32.597Z,7.05
2022-12-22T03:17:32.532Z,7.06
2022-12-22T03:18:32.520Z,7.14
2022-12-22T03:19:32.532Z,7.20
2022-12-22T03:20:32.499Z,7.24
2022-12-22T03:21:32.477Z,7.24
2022-12-22T03:22:32.466Z,7.29
2022-12-22T03:23:32.448Z,7.31
2022-12-22T03:24:32.443Z,7.32
2022-12-22T03:25:32.426Z,7.33
2022-12-22T03:26:32.410Z,7.28
2022-12-22T03:27:32.397Z,7.31
2022-12-22T03:28:32.383Z,7.29
2022-12-22T03:29:32.377Z,7.29
2022-12-22T03:30:32.369Z,7.33
2022-12-22T03:31:32.426Z,7.39
2022-12-22T03:32:32.343Z,7.35
2022-12-22T03:33:32.331Z,7.35
2022-12-22T03:34:32.309Z,7.33
2022-12-22T03:35:32.348Z,7.31
2022-12-22T03:36:32.300Z,7.29
2022-12-22T03:37:32.293Z,7.33
2022-12-22T03:38:32.272Z,7.29
2022-12-22T03:39:32.262Z,7.28
2022-12-22T03:40:32.282Z,7.28
2022-12-22T03:41:32.245Z,7.25
2022-12-22T03:42:32.210Z,7.25
2022-12-22T03:43:32.201Z,7.31
2022-12-22T03:44:32.183Z,7.25
2022-12-22T03:45:32.184Z,7.23
2022-12-22T03:46:32.326Z,7.24
2022-12-22T03:47:32.207Z,7.23
2022-12-22T03:48:32.144Z,7.23
2022-12-22T03:49:32.116Z,7.24
2022-12-22T03:50:32.104Z,7.25
2022-12-22T03:51:32.113Z,7.25
2022-12-22T03:52:32.086Z,7.23
2022-12-22T03:53:32.093Z,7.23
2022-12-22T03:54:32.062Z,7.23
2022-12-22T03:55:32.036Z,7.24
2022-12-22T03:56:32.049Z,7.28
2022-12-22T03:57:32.011Z,7.29
2022-12-22T03:58:32.004Z,7.28
2022-12-22T03:59:31.991Z,7.28
2022-12-22T04:00:31.979Z,7.28
2022-12-22T04:01:32.143Z,7.23
2022-12-22T04:02:32.064Z,7.25
2022-12-22T04:03:31.971Z,7.25
2022-12-22T04:04:31.927Z,7.24
2022-12-22T04:05:31.913Z,7.25
2022-12-22T04:06:31.890Z,7.25
2022-12-22T04:07:31.914Z,7.24
2022-12-22T04:08:32.082Z,7.25
2022-12-22T04:09:31.850Z,7.25
2022-12-22T04:10:31.835Z,7.28
2022-12-22T04:11:31.823Z,7.32
2022-12-22T04:12:31.817Z,7.33
2022-12-22T04:13:31.810Z,7.32
2022-12-22T04:14:34.586Z,7.29
2022-12-22T04:15:31.779Z,7.33
2022-12-22T04:16:31.880Z,7.36
2022-12-22T04:17:31.750Z,7.35
2022-12-22T04:18:31.743Z,7.35
2022-12-22T04:19:31.726Z,7.38
2022-12-22T04:20:31.701Z,7.35
2022-12-22T04:21:31.700Z,7.32
2022-12-22T04:22:31.674Z,7.32
2022-12-22T04:23:31.692Z,7.32
2022-12-22T04:24:31.660Z,7.32
2022-12-22T04:25:31.642Z,7.28
2022-12-22T04:26:31.632Z,7.32
2022-12-22T04:27:31.615Z,7.33
2022-12-22T04:28:31.669Z,7.35
2022-12-22T04:29:31.593Z,7.32
2022-12-22T04:30:31.570Z,7.33
2022-12-22T04:31:31.602Z,7.35
2022-12-22T04:32:31.557Z,7.35
2022-12-22T04:33:31.541Z,7.35
2022-12-22T04:34:31.513Z,7.35
2022-12-22T04:35:31.520Z,7.33
2022-12-22T04:36:31.496Z,7.35
2022-12-22T04:37:31.480Z,7.32
2022-12-22T04:38:31.477Z,7.33
2022-12-22T04:39:31.478Z,7.32
2022-12-22T04:40:31.444Z,7.28
2022-12-22T04:41:31.428Z,7.28
2022-12-22T04:42:31.437Z,7.24
2022-12-22T04:43:31.631Z,7.24
2022-12-22T04:44:31.385Z,7.23
2022-12-22T04:45:31.412Z,7.24
2022-12-22T04:46:31.453Z,7.24
2022-12-22T04:47:31.364Z,7.24
2022-12-22T04:48:31.339Z,7.25
2022-12-22T04:49:31.321Z,7.24
2022-12-22T04:50:31.317Z,7.25
2022-12-22T04:51:31.298Z,7.28
2022-12-22T04:52:31.321Z,7.32
2022-12-22T04:53:31.273Z,7.32
2022-12-22T04:54:31.258Z,7.32
2022-12-22T04:55:31.287Z,7.32
2022-12-22T04:56:31.245Z,7.33
2022-12-22T04:57:34.322Z,7.38
2022-12-22T04:58:32.245Z,7.39
2022-12-22T04:59:31.210Z,7.38
2022-12-22T05:00:31.185Z,7.39
2022-12-22T05:01:31.383Z,7.40
2022-12-22T05:02:31.336Z,7.40
2022-12-22T05:03:31.256Z,7.38
2022-12-22T05:04:31.146Z,7.36
2022-12-22T05:05:31.127Z,7.35
2022-12-22T05:06:31.118Z,7.33
2022-12-22T05:07:31.105Z,7.35
2022-12-22T05:08:31.088Z,7.36
2022-12-22T05:09:31.081Z,7.33
2022-12-22T05:10:31.056Z,7.35
2022-12-22T05:11:31.065Z,7.33
2022-12-22T05:12:31.030Z,7.35
2022-12-22T05:13:31.013Z,7.35
2022-12-22T05:14:31.010Z,7.32
2022-12-22T05:15:30.997Z,7.35
2022-12-22T05:16:31.015Z,7.33
2022-12-22T05:17:30.962Z,7.32
2022-12-22T05:18:30.947Z,7.31
2022-12-22T05:19:31.174Z,7.32
2022-12-22T05:20:30.933Z,7.29
2022-12-22T05:21:30.934Z,7.29
2022-12-22T05:22:30.898Z,7.25
2022-12-22T05:23:30.896Z,7.28
2022-12-22T05:24:30.881Z,7.29
2022-12-22T05:25:35.090Z,7.29
2022-12-22T05:26:30.866Z,7.31
2022-12-22T05:27:30.880Z,7.29
2022-12-22T05:28:30.822Z,7.28
2022-12-22T05:29:30.820Z,7.24
2022-12-22T05:30:30.821Z,7.24
2022-12-22T05:31:30.865Z,7.18
2022-12-22T05:32:30.779Z,7.20
2022-12-22T05:33:30.759Z,7.20
2022-12-22T05:34:30.746Z,7.21
2022-12-22T05:35:30.743Z,7.20
2022-12-22T05:36:30.731Z,7.15
2022-12-22T05:37:30.713Z,7.20
2022-12-22T05:38:30.693Z,7.17
2022-12-22T05:39:30.693Z,7.14
2022-12-22T05:40:30.674Z,7.20
2022-12-22T05:41:30.660Z,7.18
2022-12-22T05:42:30.637Z,7.14
2022-12-22T05:43:30.672Z,7.15
2022-12-22T05:44:30.620Z,7.17
2022-12-22T05:45:30.604Z,7.15
2022-12-22T05:46:30.633Z,7.14
2022-12-22T05:47:30.577Z,7.13
2022-12-22T05:48:36.924Z,7.10
2022-12-22T05:49:31.582Z,7.10
2022-12-22T05:50:30.543Z,7.06
2022-12-22T05:51:30.530Z,7.06
2022-12-22T05:52:30.531Z,7.06
2022-12-22T05:53:30.507Z,7.03
2022-12-22T05:54:30.485Z,7.03
2022-12-22T05:55:30.484Z,7.03
2022-12-22T05:56:30.464Z,7.03
2022-12-22T05:57:30.450Z,7.07
2022-12-22T05:58:30.444Z,7.07
2022-12-22T05:59:30.456Z,7.10
2022-12-22T06:00:30.405Z,7.10
2022-12-22T06:01:30.417Z,7.11
2022-12-22T06:02:30.555Z,7.13
2022-12-22T06:03:30.646Z,7.18
2022-12-22T06:04:30.471Z,7.18
2022-12-22T06:05:30.346Z,7.21
2022-12-22T06:06:30.332Z,7.24
2022-12-22T06:07:30.327Z,7.25
2022-12-22T06:08:30.299Z,7.25
2022-12-22T06:09:30.285Z,7.23
2022-12-22T06:10:30.275Z,7.28
2022-12-22T06:11:30.260Z,7.32
2022-12-22T06:12:30.256Z,7.31
2022-12-22T06:13:30.432Z,7.31
2022-12-22T06:14:30.230Z,7.32
2022-12-22T06:15:30.241Z,7.33
2022-12-22T06:16:30.312Z,7.31
2022-12-22T06:17:30.188Z,7.31
2022-12-22T06:18:30.193Z,7.31
2022-12-22T06:19:30.168Z,7.31
2022-12-22T06:20:36.148Z,7.35
2022-12-22T06:21:30.139Z,7.38
2022-12-22T06:22:30.113Z,7.35
2022-12-22T06:23:30.123Z,7.35
2022-12-22T06:24:30.091Z,7.35
2022-12-22T06:25:30.085Z,7.33
2022-12-22T06:26:30.069Z,7.35
2022-12-22T06:27:30.056Z,7.33
2022-12-22T06:28:30.055Z,7.31
2022-12-22T06:29:30.031Z,7.28
2022-12-22T06:30:33.638Z,7.28
2022-12-22T06:31:30.135Z,7.25
2022-12-22T06:32:30.008Z,7.23
2022-12-22T06:33:29.982Z,7.24
2022-12-22T06:34:29.969Z,7.29
2022-12-22T06:35:29.969Z,7.25
2022-12-22T06:36:29.935Z,7.28
2022-12-22T06:37:29.918Z,7.28
2022-12-22T06:38:29.912Z,7.29
2022-12-22T06:39:30.131Z,7.31
2022-12-22T06:40:35.892Z,7.31
2022-12-22T06:41:29.875Z,7.31
2022-12-22T06:42:29.865Z,7.24
2022-12-22T06:43:29.844Z,7.20
2022-12-22T06:44:29.829Z,7.20
2022-12-22T06:45:29.816Z,7.18
2022-12-22T06:46:29.864Z,7.15
2022-12-22T06:47:29.828Z,7.18
2022-12-22T06:48:29.790Z,7.14
2022-12-22T06:49:29.774Z,7.13
2022-12-22T06:50:29.759Z,7.10
2022-12-22T06:51:29.748Z,7.13
2022-12-22T06:52:29.731Z,7.11
2022-12-22T06:53:29.718Z,7.11
2022-12-22T06:54:29.705Z,7.07
2022-12-22T06:55:29.700Z,7.07
2022-12-22T06:56:29.675Z,7.06
2022-12-22T06:57:29.696Z,7.05
2022-12-22T06:58:29.654Z,7.07
2022-12-22T06:59:29.653Z,7.06
2022-12-22T07:00:29.753Z,7.06
2022-12-22T07:01:29.789Z,7.06
2022-12-22T07:02:29.805Z,7.05
2022-12-22T07:03:29.758Z,7.05
2022-12-22T07:04:29.588Z,7.02
2022-12-22T07:05:29.560Z,7.00
2022-12-22T07:06:29.556Z,7.00
2022-12-22T07:07:29.536Z,6.99
2022-12-22T07:08:29.538Z,6.97
2022-12-22T07:09:29.536Z,6.96
2022-12-22T07:10:29.512Z,6.96
2022-12-22T07:11:29.479Z,6.95
2022-12-22T07:12:29.480Z,6.89
2022-12-22T07:13:29.454Z,6.93
2022-12-22T07:14:29.449Z,7.02
2022-12-22T07:15:29.437Z,7.03
2022-12-22T07:16:29.523Z,7.03
2022-12-22T07:17:29.401Z,7.10
2022-12-22T07:18:29.395Z,7.07
2022-12-22T07:19:29.401Z,7.10
2022-12-22T07:20:29.371Z,7.13
2022-12-22T07:21:29.365Z,7.13
2022-12-22T07:22:30.682Z,7.17
2022-12-22T07:23:29.339Z,7.14
2022-12-22T07:24:29.326Z,7.18
2022-12-22T07:25:29.301Z,7.25
2022-12-22T07:26:29.300Z,7.32
2022-12-22T07:27:29.279Z,7.35
2022-12-22T07:28:29.263Z,7.40
2022-12-22T07:29:29.248Z,7.39
2022-12-22T07:30:29.245Z,7.39
2022-12-22T07:31:29.276Z,7.40
2022-12-22T07:32:29.218Z,7.40
2022-12-22T07:33:29.217Z,7.47
2022-12-22T07:34:29.190Z,7.54
2022-12-22T07:35:29.198Z,7.53
2022-12-22T07:36:29.186Z,7.56
2022-12-22T07:37:29.163Z,7.54
2022-12-22T07:38:29.139Z,7.50
2022-12-22T07:39:29.120Z,7.51
2022-12-22T07:40:29.120Z,7.51
2022-12-22T07:41:29.190Z,7.54
2022-12-22T07:42:29.094Z,7.56
2022-12-22T07:43:29.088Z,7.60
2022-12-22T07:44:29.069Z,7.57
2022-12-22T07:45:29.044Z,7.63
2022-12-22T07:46:29.126Z,7.63
2022-12-22T07:47:35.034Z,7.67
2022-12-22T07:48:30.048Z,7.67
2022-12-22T07:49:29.002Z,7.63
2022-12-22T07:50:29.021Z,7.69
2022-12-22T07:51:28.996Z,7.72
2022-12-22T07:52:28.985Z,7.73
2022-12-22T07:53:28.985Z,7.76
2022-12-22T07:54:28.970Z,7.79
2022-12-22T07:55:28.935Z,7.79
2022-12-22T07:56:28.922Z,7.83
2022-12-22T07:57:28.898Z,7.80
2022-12-22T07:58:28.896Z,7.82
2022-12-22T07:59:28.876Z,7.82
2022-12-22T08:00:28.853Z,7.83
2022-12-22T08:01:28.960Z,7.82
2022-12-22T08:02:31.121Z,7.80
2022-12-22T08:03:29.876Z,7.80
2022-12-22T08:04:28.892Z,7.79
2022-12-22T08:05:28.807Z,7.79
2022-12-22T08:06:28.789Z,7.79
2022-12-22T08:07:28.814Z,7.83
2022-12-22T08:08:28.777Z,7.88
2022-12-22T08:09:28.749Z,7.90
2022-12-22T08:10:28.732Z,7.95
2022-12-22T08:11:28.730Z,7.94
2022-12-22T08:12:28.787Z,7.98
2022-12-22T08:13:28.783Z,7.97
2022-12-22T08:14:28.678Z,7.97
2022-12-22T08:15:28.665Z,8.03
2022-12-22T08:16:28.815Z,8.08
2022-12-22T08:17:28.651Z,8.13
2022-12-22T08:18:28.646Z,8.23
2022-12-22T08:19:28.629Z,8.27
2022-12-22T08:20:28.617Z,8.27
2022-12-22T08:21:28.604Z,8.30
2022-12-22T08:22:28.576Z,8.28
2022-12-22T08:23:28.592Z,8.26
2022-12-22T08:24:28.551Z,8.27
2022-12-22T08:25:28.545Z,8.27
2022-12-22T08:26:28.547Z,8.26
2022-12-22T08:27:28.523Z,8.24
2022-12-22T08:28:28.498Z,8.30
2022-12-22T08:29:28.483Z,8.30
2022-12-22T08:30:28.463Z,8.30
2022-12-22T08:31:28.502Z,8.28
2022-12-22T08:32:28.443Z,8.27
2022-12-22T08:33:28.423Z,8.30
2022-12-22T08:34:28.412Z,8.36
2022-12-22T08:35:28.406Z,8.38
2022-12-22T08:36:28.396Z,8.44
2022-12-22T08:37:28.391Z,8.49
2022-12-22T08:38:28.356Z,8.52
2022-12-22T08:39:28.379Z,8.60
2022-12-22T08:40:28.330Z,8.63
2022-12-22T08:41:28.323Z,8.64
2022-12-22T08:42:28.319Z,8.69
2022-12-22T08:43:28.287Z,8.67
2022-12-22T08:44:28.276Z,8.66
2022-12-22T08:45:28.272Z,8.64
2022-12-22T08:46:28.296Z,8.64
2022-12-22T08:47:28.349Z,8.63
2022-12-22T08:48:28.240Z,8.58
2022-12-22T08:49:28.227Z,8.52
2022-12-22T08:50:28.195Z,8.49
2022-12-22T08:51:28.189Z,8.44
2022-12-22T08:52:28.167Z,8.37
2022-12-22T08:54:28.154Z,8.30
2022-12-22T08:55:28.144Z,8.31
2022-12-22T08:56:28.135Z,8.31
2022-12-22T08:57:28.180Z,8.36
2022-12-22T08:58:28.089Z,8.31
2022-12-22T08:59:28.208Z,8.33
2022-12-22T09:00:28.249Z,8.36
2022-12-22T09:01:28.236Z,8.33
2022-12-22T09:02:28.070Z,8.36
2022-12-22T09:03:28.087Z,8.33
2022-12-22T09:04:28.013Z,8.30
2022-12-22T09:05:28.003Z,8.78
2022-12-22T09:06:29.813Z,9.02
2022-12-22T09:07:28.076Z,9.13
2022-12-22T09:08:28.054Z,9.25
2022-12-22T09:09:27.952Z,9.16
2022-12-22T09:10:27.929Z,9.25
2022-12-22T09:11:27.929Z,9.39
2022-12-22T09:12:27.894Z,9.55
2022-12-22T09:13:27.881Z,9.84
2022-12-22T09:14:27.870Z,10.20
2022-12-22T09:15:27.853Z,10.74
2022-12-22T09:16:27.949Z,11.33
2022-12-22T09:17:27.834Z,11.29
2022-12-22T09:18:27.816Z,10.75
2022-12-22T09:19:27.828Z,10.26
2022-12-22T09:20:27.792Z,9.84
2022-12-22T09:21:27.788Z,9.50
2022-12-22T09:22:28.048Z,9.21
2022-12-22T09:23:27.758Z,8.99
2022-12-22T09:24:27.730Z,8.84
2022-12-22T09:25:27.731Z,8.69
2022-12-22T09:26:27.711Z,8.56
2022-12-22T09:27:27.717Z,8.46
2022-12-22T09:28:27.686Z,8.45
2022-12-22T09:29:27.667Z,8.44
2022-12-22T09:30:27.659Z,8.46
2022-12-22T09:31:27.744Z,8.46
2022-12-22T09:32:27.630Z,8.45
2022-12-22T09:33:27.639Z,8.46
2022-12-22T09:34:27.633Z,8.42
2022-12-22T09:35:27.609Z,8.38
2022-12-22T09:36:27.591Z,8.36
2022-12-22T09:37:27.564Z,8.36
2022-12-22T09:38:27.542Z,8.36
2022-12-22T09:39:29.491Z,8.38
2022-12-22T09:40:27.521Z,8.38
2022-12-22T09:41:27.658Z,8.36
2022-12-22T09:42:27.501Z,8.38
2022-12-22T09:43:27.507Z,8.41
2022-12-22T09:44:27.478Z,8.44
2022-12-22T09:45:27.466Z,8.45
2022-12-22T09:46:27.588Z,8.46
2022-12-22T09:47:27.454Z,8.48
2022-12-22T09:48:27.408Z,8.48
2022-12-22T09:49:27.410Z,8.45
2022-12-22T09:50:27.398Z,8.46
2022-12-22T09:51:27.744Z,8.48
2022-12-22T09:52:27.361Z,8.49
2022-12-22T09:53:27.357Z,8.49
2022-12-22T09:54:27.376Z,8.49
2022-12-22T09:55:27.332Z,8.52
2022-12-22T09:56:27.305Z,8.52
2022-12-22T09:57:27.297Z,8.52
2022-12-22T09:58:27.292Z,8.52
2022-12-22T09:59:27.297Z,8.56
2022-12-22T10:00:27.263Z,8.60
2022-12-22T10:01:27.334Z,8.60
2022-12-22T10:02:27.278Z,8.63
2022-12-22T10:03:27.317Z,8.61
2022-12-22T10:04:27.205Z,8.58
2022-12-22T10:05:27.183Z,8.56
2022-12-22T10:06:27.208Z,8.53
2022-12-22T10:07:27.181Z,8.53
2022-12-22T10:08:27.150Z,8.53
2022-12-22T10:09:48.632Z,8.52
2022-12-22T10:10:28.174Z,8.52
2022-12-22T10:11:27.107Z,8.52
2022-12-22T10:12:27.112Z,8.53
2022-12-22T10:13:27.079Z,8.52
2022-12-22T10:14:27.073Z,8.55
2022-12-22T10:15:27.095Z,8.52
2022-12-22T10:16:27.151Z,8.48
2022-12-22T10:17:27.026Z,8.46
2022-12-22T10:18:27.014Z,8.45
2022-12-22T10:19:27.017Z,8.45
2022-12-22T10:20:26.992Z,8.44
2022-12-22T10:21:26.988Z,8.41
2022-12-22T10:22:26.970Z,8.41
2022-12-22T10:23:26.950Z,8.37
2022-12-22T10:24:26.935Z,8.41
2022-12-22T10:25:26.923Z,8.38
2022-12-22T10:26:29.198Z,8.42
2022-12-22T10:27:29.325Z,8.42
2022-12-22T10:28:26.905Z,8.45
2022-12-22T10:29:26.891Z,8.46
2022-12-22T10:30:26.867Z,8.46
2022-12-22T10:31:27.027Z,8.46
2022-12-22T10:32:26.967Z,8.45
2022-12-22T10:33:26.838Z,8.46
2022-12-22T10:34:26.823Z,8.45
2022-12-22T10:35:26.802Z,8.46
2022-12-22T10:36:26.788Z,8.48
2022-12-22T10:37:26.777Z,8.46
2022-12-22T10:38:26.767Z,8.49
2022-12-22T10:39:26.755Z,8.48
2022-12-22T10:40:26.751Z,8.49
2022-12-22T10:41:26.716Z,8.49
2022-12-22T10:42:26.705Z,8.49
2022-12-22T10:43:26.700Z,8.49
2022-12-22T10:44:26.680Z,8.51
2022-12-22T10:45:26.710Z,8.45
2022-12-22T10:46:26.680Z,8.48
2022-12-22T10:47:26.680Z,8.49
2022-12-22T10:48:26.638Z,8.49
2022-12-22T10:49:26.641Z,8.49
2022-12-22T10:50:26.617Z,8.48
2022-12-22T10:51:26.616Z,8.48
2022-12-22T10:52:30.608Z,8.46
2022-12-22T10:53:26.584Z,8.48
2022-12-22T10:54:26.574Z,8.46
2022-12-22T10:55:26.562Z,8.46
2022-12-22T10:56:26.552Z,8.48
2022-12-22T10:57:26.515Z,8.49
2022-12-22T10:58:26.497Z,8.49
2022-12-22T10:59:26.484Z,8.52
2022-12-22T11:00:26.477Z,8.52
2022-12-22T11:01:26.639Z,8.55
2022-12-22T11:02:26.749Z,8.61
2022-12-22T11:03:26.607Z,8.63
2022-12-22T11:04:26.426Z,8.64
2022-12-22T11:05:26.419Z,8.63
2022-12-22T11:06:26.402Z,8.60
2022-12-22T11:07:26.397Z,8.58
2022-12-22T11:08:26.366Z,8.56
2022-12-22T11:09:35.367Z,8.55
2022-12-22T11:10:27.397Z,8.60
2022-12-22T11:11:26.346Z,8.61
2022-12-22T11:12:26.344Z,8.66
2022-12-22T11:13:26.305Z,8.67
2022-12-22T11:14:26.305Z,8.69
2022-12-22T11:15:26.292Z,8.70
2022-12-22T11:16:26.351Z,8.73
2022-12-22T11:17:26.273Z,8.73
2022-12-22T11:18:26.260Z,8.73
2022-12-22T11:19:26.272Z,8.73
2022-12-22T11:20:26.213Z,8.73
2022-12-22T11:21:26.204Z,8.69
2022-12-22T11:22:26.190Z,8.69
2022-12-22T11:23:26.197Z,8.69
2022-12-22T11:24:26.159Z,8.69
2022-12-22T11:25:26.152Z,8.69
2022-12-22T11:26:26.137Z,8.67
2022-12-22T11:27:26.132Z,8.67
2022-12-22T11:28:26.102Z,8.64
2022-12-22T11:29:26.091Z,8.66
2022-12-22T11:30:26.116Z,8.66
2022-12-22T11:31:26.129Z,8.63
2022-12-22T11:32:26.052Z,8.64
2022-12-22T11:33:26.057Z,8.66
2022-12-22T11:34:26.040Z,8.64
2022-12-22T11:35:26.054Z,8.66
2022-12-22T11:36:26.023Z,8.66
2022-12-22T11:37:26.006Z,8.67
2022-12-22T11:38:26.005Z,8.66
2022-12-22T11:39:25.973Z,8.64
2022-12-22T11:40:25.985Z,8.63
2022-12-22T11:41:25.946Z,8.66
2022-12-22T11:42:25.936Z,8.64
2022-12-22T11:43:25.909Z,8.66
2022-12-22T11:44:25.910Z,8.70
2022-12-22T11:45:25.893Z,8.70
2022-12-22T11:46:25.946Z,8.70
2022-12-22T11:47:25.875Z,8.70
2022-12-22T11:48:25.860Z,8.76
2022-12-22T11:49:25.843Z,8.78
2022-12-22T11:51:02.073Z,8.81
2022-12-22T11:51:28.037Z,8.81
2022-12-22T11:52:25.805Z,8.85
2022-12-22T11:53:25.792Z,8.89
2022-12-22T11:54:25.781Z,8.91
2022-12-22T11:55:25.776Z,8.91
2022-12-22T11:56:25.782Z,8.92
2022-12-22T11:57:25.740Z,8.99
2022-12-22T11:58:25.725Z,8.99
2022-12-22T11:59:25.708Z,8.99
2022-12-22T12:00:55.744Z,8.99
2022-12-22T12:01:26.729Z,9.03
2022-12-22T12:02:25.778Z,9.02
2022-12-22T12:03:25.793Z,9.03
2022-12-22T12:04:25.733Z,9.02
2022-12-22T12:05:25.644Z,9.06
2022-12-22T12:06:25.643Z,9.08
2022-12-22T12:07:26.491Z,9.10
2022-12-22T12:08:25.584Z,9.13
2022-12-22T12:09:25.568Z,9.14
2022-12-22T12:10:25.591Z,9.14
2022-12-22T12:11:25.569Z,9.21
2022-12-22T12:12:25.546Z,9.21
2022-12-22T12:13:28.836Z,9.23
2022-12-22T12:14:25.510Z,9.22
2022-12-22T12:15:25.533Z,9.25
2022-12-22T12:16:25.518Z,9.23
2022-12-22T12:17:25.475Z,9.25
2022-12-22T12:18:25.460Z,9.25
2022-12-22T12:19:28.655Z,9.26
2022-12-22T12:20:25.438Z,9.29
2022-12-22T12:21:25.433Z,9.32
2022-12-22T12:22:25.403Z,9.31
2022-12-22T12:23:25.419Z,9.32
2022-12-22T12:24:25.403Z,9.34
2022-12-22T12:25:26.132Z,9.40
2022-12-22T12:26:25.371Z,9.43
2022-12-22T12:27:25.345Z,9.44
2022-12-22T12:28:25.381Z,9.46
2022-12-22T12:29:25.332Z,9.46
2022-12-22T12:30:40.650Z,9.48
2022-12-22T12:31:26.941Z,9.48
2022-12-22T12:32:25.274Z,9.48
2022-12-22T12:33:25.274Z,9.56
2022-12-22T12:34:25.252Z,9.58
2022-12-22T12:35:25.258Z,9.55
2022-12-22T12:36:25.248Z,9.58
2022-12-22T12:37:26.884Z,9.58
2022-12-22T12:39:05.842Z,9.59
2022-12-22T12:39:26.261Z,9.61
2022-12-22T12:40:25.182Z,9.64
2022-12-22T12:41:25.176Z,9.69
2022-12-22T12:42:25.157Z,9.74
2022-12-22T12:43:25.132Z,9.73
2022-12-22T12:44:25.143Z,9.74
2022-12-22T12:45:25.116Z,9.74
2022-12-22T12:46:25.161Z,9.73
2022-12-22T12:47:25.100Z,9.68
2022-12-22T12:48:25.100Z,9.66
2022-12-22T12:49:26.670Z,9.66
2022-12-22T12:50:25.047Z,9.66
2022-12-22T12:51:25.024Z,9.68
2022-12-22T12:52:25.017Z,9.69
2022-12-22T12:53:25.013Z,9.72
2022-12-22T12:54:24.999Z,9.65
2022-12-22T12:55:31.359Z,9.64
2022-12-22T12:56:25.999Z,9.64
2022-12-22T12:57:24.953Z,9.62
2022-12-22T12:58:24.943Z,9.61
2022-12-22T12:59:24.935Z,9.59
2022-12-22T13:00:24.976Z,9.59
2022-12-22T13:01:25.021Z,9.56
2022-12-22T13:02:25.104Z,9.55
2022-12-22T13:04:00.903Z,9.51
2022-12-22T13:04:26.119Z,9.51
2022-12-22T13:05:24.853Z,9.56
2022-12-22T13:06:24.843Z,9.61
2022-12-22T13:07:24.821Z,9.62
2022-12-22T13:08:24.849Z,9.62
2022-12-22T13:09:50.368Z,9.62
2022-12-22T13:10:25.832Z,9.59
2022-12-22T13:11:52.559Z,9.58
2022-12-22T13:12:25.783Z,9.56
2022-12-22T13:13:24.752Z,9.56
2022-12-22T13:14:24.808Z,9.58
2022-12-22T13:15:24.749Z,9.56
2022-12-22T13:16:24.757Z,9.59
2022-12-22T13:17:24.743Z,9.59
2022-12-22T13:18:24.690Z,9.58
2022-12-22T13:19:24.677Z,9.59